St Petersburg Clearwater International Airport
KPIE : now visible

Airfield :











YOU CAN JOIN US ON...

 
LOGIN :

Register | Disclaimer

   EN    FR    IT 

 









Legend :    VFR   Marginal VFR   IFR   Intensive IFR   Very Intensive IFR
Visi :
Ceiling :
>= 8 km
>= 3000ft
5 to 8 km
1000 to 3000 ft
1500m to 5 km
500 to 1000 ft
800 to 1500m
200 to 500 ft
< 800m
< 200 ft
Symbols :   Thunderstorms  Fog  Heavy snow  Heavy precipitations  Wind > 20 kt






- Airport Elevation : 11 ft
- IATA code : PIE


KPIE - St Petersburg Clearwater International

CURRENT METAR :
  • 080753Z AUTO 11004KT 10SM CLR 17/14 A3023 RMK AO2 SLP236 T01720144

EXPIRED METARs :
  • 080653Z AUTO 12003KT 10SM CLR 17/14 A3024 RMK AO2 SLP240 T01720144
  • 080553Z AUTO 13007KT 10SM CLR 18/14 A3025 RMK AO2 SLP242 T01830144 10228 20183 58005
  • 080453Z 13007KT 10SM CLR 19/14 A3026 RMK AO2 SLP246 T01890139 402670161

TAF KPIE
Valid from the 08 at 06:00 until the 09 at 06:00 UTC


080522Z 0806/0906 13007KT P6SM SKC
FM090200 10005KT P6SM SKC
KZMA FIR / North America



MET'MAP, your aeronautical weather chart ! - Copyright ORBIFLY December 2007 - Disclaimer

ORBIFLY MET'MAP TEAM :

Programming & Development : Alexandra Zaïnal
Original concept : Baudouin d'Aumeries
Technical & hardware support : Manuel Goepfert
Assistance : Marc-Olivier Méhu




SOURCES & CREDITS :

   NOAA       Earth
Advisory